sensor_id;sensor_type;location;lat;lon;timestamp;P1;durP1;ratioP1;P2;durP2;ratioP2
48667;SDS011;34453;52.198;5.004;2023-03-11T00:00:09;7.97;;;1.00;;
48667;SDS011;34453;52.198;5.004;2023-03-11T00:02:41;3.22;;;0.85;;
48667;SDS011;34453;52.198;5.004;2023-03-11T00:05:08;3.55;;;0.80;;
48667;SDS011;34453;52.198;5.004;2023-03-11T00:07:36;3.50;;;1.20;;
48667;SDS011;34453;52.198;5.004;2023-03-11T00:10:04;6.55;;;1.08;;
48667;SDS011;34453;52.198;5.004;2023-03-11T00:12:30;2.40;;;0.70;;
48667;SDS011;34453;52.198;5.004;2023-03-11T00:14:56;0.80;;;0.80;;
48667;SDS011;34453;52.198;5.004;2023-03-11T00:17:21;1.55;;;1.23;;
48667;SDS011;34453;52.198;5.004;2023-03-11T00:19:46;4.53;;;1.10;;
48667;SDS011;34453;52.198;5.004;2023-03-11T00:22:12;5.60;;;0.90;;
48667;SDS011;34453;52.198;5.004;2023-03-11T00:24:37;2.78;;;1.20;;
48667;SDS011;34453;52.198;5.004;2023-03-11T00:27:03;6.82;;;1.00;;
48667;SDS011;34453;52.198;5.004;2023-03-11T00:29:28;3.58;;;0.90;;
48667;SDS011;34453;52.198;5.004;2023-03-11T00:31:54;2.83;;;0.85;;
48667;SDS011;34453;52.198;5.004;2023-03-11T00:34:19;2.33;;;0.60;;
48667;SDS011;34453;52.198;5.004;2023-03-11T00:36:44;3.00;;;0.73;;
48667;SDS011;34453;52.198;5.004;2023-03-11T00:39:10;4.43;;;1.15;;
48667;SDS011;34453;52.198;5.004;2023-03-11T00:41:35;6.75;;;0.70;;
48667;SDS011;34453;52.198;5.004;2023-03-11T00:44:01;2.30;;;1.23;;
48667;SDS011;34453;52.198;5.004;2023-03-11T00:46:27;13.38;;;1.40;;
48667;SDS011;34453;52.198;5.004;2023-03-11T00:48:54;8.40;;;1.08;;
48667;SDS011;34453;52.198;5.004;2023-03-11T00:51:20;1.10;;;0.88;;
48667;SDS011;34453;52.198;5.004;2023-03-11T00:53:45;3.55;;;1.05;;
48667;SDS011;34453;52.198;5.004;2023-03-11T00:56:12;1.85;;;0.85;;
48667;SDS011;34453;52.198;5.004;2023-03-11T00:58:39;2.83;;;0.60;;
48667;SDS011;34453;52.198;5.004;2023-03-11T01:01:08;3.97;;;0.52;;
48667;SDS011;34453;52.198;5.004;2023-03-11T01:03:36;3.10;;;1.17;;
48667;SDS011;34453;52.198;5.004;2023-03-11T01:06:02;1.92;;;0.80;;
48667;SDS011;34453;52.198;5.004;2023-03-11T01:08:28;6.45;;;1.15;;
48667;SDS011;34453;52.198;5.004;2023-03-11T01:10:55;2.38;;;0.85;;
48667;SDS011;34453;52.198;5.004;2023-03-11T01:13:21;2.92;;;0.95;;
48667;SDS011;34453;52.198;5.004;2023-03-11T01:15:47;1.60;;;0.98;;
48667;SDS011;34453;52.198;5.004;2023-03-11T01:18:13;3.03;;;0.80;;
48667;SDS011;34453;52.198;5.004;2023-03-11T01:20:39;3.80;;;0.98;;
48667;SDS011;34453;52.198;5.004;2023-03-11T01:23:05;2.50;;;0.70;;
48667;SDS011;34453;52.198;5.004;2023-03-11T01:25:32;3.03;;;0.90;;
48667;SDS011;34453;52.198;5.004;2023-03-11T01:27:57;1.23;;;0.85;;
48667;SDS011;34453;52.198;5.004;2023-03-11T01:30:24;3.20;;;0.77;;
48667;SDS011;34453;52.198;5.004;2023-03-11T01:32:50;4.30;;;1.00;;
48667;SDS011;34453;52.198;5.004;2023-03-11T01:35:17;1.75;;;1.23;;
48667;SDS011;34453;52.198;5.004;2023-03-11T01:37:44;2.78;;;1.33;;
48667;SDS011;34453;52.198;5.004;2023-03-11T01:40:16;4.65;;;1.23;;
48667;SDS011;34453;52.198;5.004;2023-03-11T01:42:44;6.60;;;1.15;;
48667;SDS011;34453;52.198;5.004;2023-03-11T01:45:25;2.15;;;0.73;;
48667;SDS011;34453;52.198;5.004;2023-03-11T01:48:26;4.63;;;0.93;;
48667;SDS011;34453;52.198;5.004;2023-03-11T01:50:52;6.85;;;1.00;;
48667;SDS011;34453;52.198;5.004;2023-03-11T01:53:18;6.47;;;1.98;;
48667;SDS011;34453;52.198;5.004;2023-03-11T01:55:45;2.88;;;1.20;;
48667;SDS011;34453;52.198;5.004;2023-03-11T01:58:16;3.25;;;0.85;;
48667;SDS011;34453;52.198;5.004;2023-03-11T02:00:44;2.67;;;0.73;;
48667;SDS011;34453;52.198;5.004;2023-03-11T02:03:25;1.20;;;1.02;;
48667;SDS011;34453;52.198;5.004;2023-03-11T02:05:53;9.77;;;1.48;;
48667;SDS011;34453;52.198;5.004;2023-03-11T02:08:20;3.90;;;0.80;;
48667;SDS011;34453;52.198;5.004;2023-03-11T02:10:46;2.63;;;1.27;;
48667;SDS011;34453;52.198;5.004;2023-03-11T02:13:15;0.90;;;0.90;;
48667;SDS011;34453;52.198;5.004;2023-03-11T02:15:42;1.23;;;1.00;;
48667;SDS011;34453;52.198;5.004;2023-03-11T02:18:08;7.20;;;0.93;;
48667;SDS011;34453;52.198;5.004;2023-03-11T02:26:31;1.27;;;0.98;;
48667;SDS011;34453;52.198;5.004;2023-03-11T02:28:57;1.65;;;0.80;;
48667;SDS011;34453;52.198;5.004;2023-03-11T02:31:24;3.17;;;1.55;;
48667;SDS011;34453;52.198;5.004;2023-03-11T02:33:50;2.28;;;0.90;;
48667;SDS011;34453;52.198;5.004;2023-03-11T02:39:04;1.38;;;0.90;;
48667;SDS011;34453;52.198;5.004;2023-03-11T02:41:31;1.95;;;1.08;;
48667;SDS011;34453;52.198;5.004;2023-03-11T02:44:03;2.67;;;1.00;;
48667;SDS011;34453;52.198;5.004;2023-03-11T02:46:32;4.60;;;1.40;;
48667;SDS011;34453;52.198;5.004;2023-03-11T02:48:59;2.35;;;0.82;;
48667;SDS011;34453;52.198;5.004;2023-03-11T02:51:25;0.65;;;0.65;;
48667;SDS011;34453;52.198;5.004;2023-03-11T02:53:52;3.38;;;1.45;;
48667;SDS011;34453;52.198;5.004;2023-03-11T02:56:21;0.90;;;0.90;;
48667;SDS011;34453;52.198;5.004;2023-03-11T02:58:46;1.23;;;1.13;;
48667;SDS011;34453;52.198;5.004;2023-03-11T03:01:12;5.22;;;0.98;;
48667;SDS011;34453;52.198;5.004;2023-03-11T03:03:38;4.40;;;1.00;;
48667;SDS011;34453;52.198;5.004;2023-03-11T03:06:04;2.67;;;0.98;;
48667;SDS011;34453;52.198;5.004;2023-03-11T03:08:30;3.75;;;0.90;;
48667;SDS011;34453;52.198;5.004;2023-03-11T03:10:55;2.65;;;1.20;;
48667;SDS011;34453;52.198;5.004;2023-03-11T03:13:21;5.57;;;1.27;;
48667;SDS011;34453;52.198;5.004;2023-03-11T03:15:46;15.63;;;1.70;;
48667;SDS011;34453;52.198;5.004;2023-03-11T03:18:11;0.98;;;0.80;;
48667;SDS011;34453;52.198;5.004;2023-03-11T03:20:37;10.55;;;1.90;;
48667;SDS011;34453;52.198;5.004;2023-03-11T03:23:02;6.60;;;1.40;;
48667;SDS011;34453;52.198;5.004;2023-03-11T03:25:28;3.60;;;1.00;;
48667;SDS011;34453;52.198;5.004;2023-03-11T03:27:53;6.03;;;0.90;;
48667;SDS011;34453;52.198;5.004;2023-03-11T03:30:19;3.33;;;1.25;;
48667;SDS011;34453;52.198;5.004;2023-03-11T03:32:44;4.80;;;1.30;;
48667;SDS011;34453;52.198;5.004;2023-03-11T03:35:10;5.38;;;1.20;;
48667;SDS011;34453;52.198;5.004;2023-03-11T03:37:36;10.48;;;1.35;;
48667;SDS011;34453;52.198;5.004;2023-03-11T03:40:03;4.65;;;1.08;;
48667;SDS011;34453;52.198;5.004;2023-03-11T03:42:33;2.15;;;0.95;;
48667;SDS011;34453;52.198;5.004;2023-03-11T03:45:00;2.80;;;0.88;;
48667;SDS011;34453;52.198;5.004;2023-03-11T03:47:25;5.38;;;1.88;;
48667;SDS011;34453;52.198;5.004;2023-03-11T08:09:45;13.20;;;1.80;;
48667;SDS011;34453;52.198;5.004;2023-03-11T08:12:10;9.88;;;2.10;;
48667;SDS011;34453;52.198;5.004;2023-03-11T08:14:36;3.13;;;1.35;;
48667;SDS011;34453;52.198;5.004;2023-03-11T08:17:02;3.13;;;1.30;;
48667;SDS011;34453;52.198;5.004;2023-03-11T08:19:28;7.03;;;1.40;;
48667;SDS011;34453;52.198;5.004;2023-03-11T08:21:53;3.00;;;2.38;;
48667;SDS011;34453;52.198;5.004;2023-03-11T08:24:19;2.08;;;1.10;;
48667;SDS011;34453;52.198;5.004;2023-03-11T08:26:44;1.40;;;0.90;;
48667;SDS011;34453;52.198;5.004;2023-03-11T08:29:10;3.22;;;1.50;;
48667;SDS011;34453;52.198;5.004;2023-03-11T08:31:35;3.50;;;1.17;;
48667;SDS011;34453;52.198;5.004;2023-03-11T08:34:02;2.40;;;1.27;;
48667;SDS011;34453;52.198;5.004;2023-03-11T08:36:30;7.85;;;1.63;;
48667;SDS011;34453;52.198;5.004;2023-03-11T08:38:56;10.07;;;1.33;;
48667;SDS011;34453;52.198;5.004;2023-03-11T08:41:22;1.70;;;1.10;;
48667;SDS011;34453;52.198;5.004;2023-03-11T08:43:48;2.13;;;1.30;;
48667;SDS011;34453;52.198;5.004;2023-03-11T08:48:54;1.73;;;1.10;;
48667;SDS011;34453;52.198;5.004;2023-03-11T08:51:21;7.70;;;1.15;;
48667;SDS011;34453;52.198;5.004;2023-03-11T08:53:48;4.03;;;1.33;;
48667;SDS011;34453;52.198;5.004;2023-03-11T08:56:14;2.83;;;1.88;;
48667;SDS011;34453;52.198;5.004;2023-03-11T08:58:40;5.97;;;0.90;;
48667;SDS011;34453;52.198;5.004;2023-03-11T09:01:05;4.85;;;1.65;;
48667;SDS011;34453;52.198;5.004;2023-03-11T09:03:33;6.20;;;1.98;;
48667;SDS011;34453;52.198;5.004;2023-03-11T09:06:00;9.30;;;1.55;;
48667;SDS011;34453;52.198;5.004;2023-03-11T09:08:27;5.28;;;1.52;;
48667;SDS011;34453;52.198;5.004;2023-03-11T09:10:53;2.58;;;1.40;;
48667;SDS011;34453;52.198;5.004;2023-03-11T09:13:18;2.75;;;2.15;;
48667;SDS011;34453;52.198;5.004;2023-03-11T09:15:44;3.35;;;2.22;;
48667;SDS011;34453;52.198;5.004;2023-03-11T09:18:12;5.38;;;1.38;;
48667;SDS011;34453;52.198;5.004;2023-03-11T09:20:39;2.80;;;1.38;;
48667;SDS011;34453;52.198;5.004;2023-03-11T09:23:06;8.75;;;1.30;;
48667;SDS011;34453;52.198;5.004;2023-03-11T09:25:31;11.65;;;1.50;;
48667;SDS011;34453;52.198;5.004;2023-03-11T09:27:57;2.80;;;1.00;;
48667;SDS011;34453;52.198;5.004;2023-03-11T09:30:22;4.45;;;1.77;;
48667;SDS011;34453;52.198;5.004;2023-03-11T09:32:48;3.72;;;1.02;;
48667;SDS011;34453;52.198;5.004;2023-03-11T09:35:13;1.92;;;1.30;;
48667;SDS011;34453;52.198;5.004;2023-03-11T09:37:38;5.97;;;1.55;;
48667;SDS011;34453;52.198;5.004;2023-03-11T09:40:04;5.43;;;1.20;;
48667;SDS011;34453;52.198;5.004;2023-03-11T09:45:12;5.25;;;1.30;;
48667;SDS011;34453;52.198;5.004;2023-03-11T09:47:45;1.00;;;0.90;;
48667;SDS011;34453;52.198;5.004;2023-03-11T09:50:27;6.13;;;1.05;;
48667;SDS011;34453;52.198;5.004;2023-03-11T09:53:02;3.92;;;1.60;;
48667;SDS011;34453;52.198;5.004;2023-03-11T10:01:39;7.28;;;1.25;;
48667;SDS011;34453;52.198;5.004;2023-03-11T10:06:37;6.13;;;1.42;;
48667;SDS011;34453;52.198;5.004;2023-03-11T10:09:12;5.97;;;1.80;;
48667;SDS011;34453;52.198;5.004;2023-03-11T10:12:19;4.07;;;1.52;;
48667;SDS011;34453;52.198;5.004;2023-03-11T10:15:15;6.13;;;1.33;;
48667;SDS011;34453;52.198;5.004;2023-03-11T10:25:51;16.27;;;1.50;;
48667;SDS011;34453;52.198;5.004;2023-03-11T10:28:20;5.30;;;1.13;;
48667;SDS011;34453;52.198;5.004;2023-03-11T10:34:08;3.78;;;1.33;;
48667;SDS011;34453;52.198;5.004;2023-03-11T10:36:37;7.05;;;1.50;;
48667;SDS011;34453;52.198;5.004;2023-03-11T10:39:16;3.30;;;1.55;;
48667;SDS011;34453;52.198;5.004;2023-03-11T10:41:55;4.30;;;1.13;;
48667;SDS011;34453;52.198;5.004;2023-03-11T10:44:28;6.10;;;0.98;;
48667;SDS011;34453;52.198;5.004;2023-03-11T10:47:05;3.88;;;1.48;;
48667;SDS011;34453;52.198;5.004;2023-03-11T10:49:37;8.30;;;1.33;;
48667;SDS011;34453;52.198;5.004;2023-03-11T10:52:03;7.40;;;1.02;;
48667;SDS011;34453;52.198;5.004;2023-03-11T10:54:39;3.60;;;0.77;;
48667;SDS011;34453;52.198;5.004;2023-03-11T10:57:24;4.15;;;0.70;;
48667;SDS011;34453;52.198;5.004;2023-03-11T10:59:57;5.72;;;1.00;;
48667;SDS011;34453;52.198;5.004;2023-03-11T11:02:25;2.80;;;0.73;;
48667;SDS011;34453;52.198;5.004;2023-03-11T11:05:07;4.78;;;0.90;;
48667;SDS011;34453;52.198;5.004;2023-03-11T11:07:51;1.65;;;0.80;;
48667;SDS011;34453;52.198;5.004;2023-03-11T11:10:31;3.97;;;1.10;;
48667;SDS011;34453;52.198;5.004;2023-03-11T11:13:04;2.60;;;0.88;;
48667;SDS011;34453;52.198;5.004;2023-03-11T11:15:59;3.67;;;0.77;;
48667;SDS011;34453;52.198;5.004;2023-03-11T11:21:01;1.23;;;0.70;;
48667;SDS011;34453;52.198;5.004;2023-03-11T11:26:03;3.85;;;1.77;;
48667;SDS011;34453;52.198;5.004;2023-03-11T11:28:31;5.22;;;1.38;;
48667;SDS011;34453;52.198;5.004;2023-03-11T11:31:01;1.92;;;1.00;;
48667;SDS011;34453;52.198;5.004;2023-03-11T11:33:32;11.55;;;1.77;;
48667;SDS011;34453;52.198;5.004;2023-03-11T11:36:04;12.15;;;1.33;;
48667;SDS011;34453;52.198;5.004;2023-03-11T11:38:40;0.65;;;0.65;;
48667;SDS011;34453;52.198;5.004;2023-03-11T11:41:08;6.40;;;0.77;;
48667;SDS011;34453;52.198;5.004;2023-03-11T11:43:42;9.88;;;1.00;;
48667;SDS011;34453;52.198;5.004;2023-03-11T11:46:59;4.65;;;1.23;;
48667;SDS011;34453;52.198;5.004;2023-03-11T11:54:42;6.05;;;1.52;;
48667;SDS011;34453;52.198;5.004;2023-03-11T11:57:17;4.03;;;1.05;;
48667;SDS011;34453;52.198;5.004;2023-03-11T11:59:44;2.58;;;0.98;;
48667;SDS011;34453;52.198;5.004;2023-03-11T12:04:47;3.35;;;1.35;;
48667;SDS011;34453;52.198;5.004;2023-03-11T12:15:21;5.47;;;1.02;;
48667;SDS011;34453;52.198;5.004;2023-03-11T12:17:51;3.83;;;1.65;;
48667;SDS011;34453;52.198;5.004;2023-03-11T12:20:24;4.00;;;0.95;;
48667;SDS011;34453;52.198;5.004;2023-03-11T12:28:23;6.22;;;0.90;;
48667;SDS011;34453;52.198;5.004;2023-03-11T12:30:53;4.55;;;1.35;;
48667;SDS011;34453;52.198;5.004;2023-03-11T12:33:33;7.05;;;1.30;;
48667;SDS011;34453;52.198;5.004;2023-03-11T12:36:20;2.08;;;0.90;;
48667;SDS011;34453;52.198;5.004;2023-03-11T12:38:48;4.90;;;2.00;;
48667;SDS011;34453;52.198;5.004;2023-03-11T12:44:21;5.90;;;1.42;;
48667;SDS011;34453;52.198;5.004;2023-03-11T12:49:25;4.13;;;1.05;;
48667;SDS011;34453;52.198;5.004;2023-03-11T12:54:33;6.53;;;1.08;;
48667;SDS011;34453;52.198;5.004;2023-03-11T12:57:02;3.38;;;0.90;;
48667;SDS011;34453;52.198;5.004;2023-03-11T13:14:17;1.67;;;1.05;;
48667;SDS011;34453;52.198;5.004;2023-03-11T13:16:47;1.60;;;0.85;;
48667;SDS011;34453;52.198;5.004;2023-03-11T13:21:54;2.97;;;0.70;;
48667;SDS011;34453;52.198;5.004;2023-03-11T13:32:47;3.95;;;1.10;;
48667;SDS011;34453;52.198;5.004;2023-03-11T13:41:13;4.35;;;0.82;;
48667;SDS011;34453;52.198;5.004;2023-03-11T13:43:44;2.22;;;1.17;;
48667;SDS011;34453;52.198;5.004;2023-03-11T13:46:13;2.15;;;0.95;;
48667;SDS011;34453;52.198;5.004;2023-03-11T13:48:50;7.45;;;1.20;;
48667;SDS011;34453;52.198;5.004;2023-03-11T13:51:31;4.00;;;1.33;;
48667;SDS011;34453;52.198;5.004;2023-03-11T13:54:03;5.90;;;0.75;;
48667;SDS011;34453;52.198;5.004;2023-03-11T13:56:45;2.05;;;0.93;;
48667;SDS011;34453;52.198;5.004;2023-03-11T13:59:25;3.67;;;0.90;;
48667;SDS011;34453;52.198;5.004;2023-03-11T14:01:56;2.53;;;0.95;;
48667;SDS011;34453;52.198;5.004;2023-03-11T14:04:27;3.70;;;1.17;;
48667;SDS011;34453;52.198;5.004;2023-03-11T14:06:55;5.80;;;1.55;;
48667;SDS011;34453;52.198;5.004;2023-03-11T14:09:21;7.40;;;1.20;;
48667;SDS011;34453;52.198;5.004;2023-03-11T14:11:48;5.38;;;1.63;;
48667;SDS011;34453;52.198;5.004;2023-03-11T14:16:58;3.15;;;1.15;;
48667;SDS011;34453;52.198;5.004;2023-03-11T14:19:25;3.88;;;1.30;;
48667;SDS011;34453;52.198;5.004;2023-03-11T14:21:52;2.40;;;1.20;;
48667;SDS011;34453;52.198;5.004;2023-03-11T14:26:48;8.63;;;1.05;;
48667;SDS011;34453;52.198;5.004;2023-03-11T14:29:39;1.30;;;1.20;;
48667;SDS011;34453;52.198;5.004;2023-03-11T14:32:24;7.35;;;1.20;;
48667;SDS011;34453;52.198;5.004;2023-03-11T14:34:54;2.10;;;1.17;;
48667;SDS011;34453;52.198;5.004;2023-03-11T14:37:30;4.22;;;1.38;;
48667;SDS011;34453;52.198;5.004;2023-03-11T14:39:56;1.67;;;1.40;;
48667;SDS011;34453;52.198;5.004;2023-03-11T14:49:51;7.22;;;1.20;;
48667;SDS011;34453;52.198;5.004;2023-03-11T14:52:20;6.13;;;0.75;;
48667;SDS011;34453;52.198;5.004;2023-03-11T14:55:13;7.22;;;0.65;;
48667;SDS011;34453;52.198;5.004;2023-03-11T14:57:56;2.58;;;0.75;;
48667;SDS011;34453;52.198;5.004;2023-03-11T15:00:38;5.68;;;0.70;;
48667;SDS011;34453;52.198;5.004;2023-03-11T15:08:06;2.80;;;0.50;;
48667;SDS011;34453;52.198;5.004;2023-03-11T15:10:32;8.10;;;1.17;;
48667;SDS011;34453;52.198;5.004;2023-03-11T15:13:06;2.38;;;0.93;;
48667;SDS011;34453;52.198;5.004;2023-03-11T15:15:34;2.28;;;0.95;;
48667;SDS011;34453;52.198;5.004;2023-03-11T15:18:00;9.43;;;1.00;;
48667;SDS011;34453;52.198;5.004;2023-03-11T15:22:56;2.30;;;0.77;;
48667;SDS011;34453;52.198;5.004;2023-03-11T15:25:25;2.60;;;0.60;;
48667;SDS011;34453;52.198;5.004;2023-03-11T15:27:51;1.35;;;0.60;;
48667;SDS011;34453;52.198;5.004;2023-03-11T15:30:18;5.05;;;0.55;;
48667;SDS011;34453;52.198;5.004;2023-03-11T15:32:55;3.13;;;0.70;;
48667;SDS011;34453;52.198;5.004;2023-03-11T15:35:22;9.43;;;1.17;;
48667;SDS011;34453;52.198;5.004;2023-03-11T15:40:56;0.68;;;0.68;;
48667;SDS011;34453;52.198;5.004;2023-03-11T15:45:50;5.32;;;0.80;;
48667;SDS011;34453;52.198;5.004;2023-03-11T15:48:18;6.60;;;1.10;;
48667;SDS011;34453;52.198;5.004;2023-03-11T15:50:45;1.60;;;0.98;;
48667;SDS011;34453;52.198;5.004;2023-03-11T15:53:22;1.13;;;1.10;;
48667;SDS011;34453;52.198;5.004;2023-03-11T15:55:48;1.90;;;0.60;;
48667;SDS011;34453;52.198;5.004;2023-03-11T15:58:16;2.97;;;0.93;;
48667;SDS011;34453;52.198;5.004;2023-03-11T16:00:49;7.78;;;1.20;;
48667;SDS011;34453;52.198;5.004;2023-03-11T16:03:17;6.07;;;0.65;;
48667;SDS011;34453;52.198;5.004;2023-03-11T16:05:44;3.95;;;1.10;;
48667;SDS011;34453;52.198;5.004;2023-03-11T16:08:10;7.03;;;1.30;;
48667;SDS011;34453;52.198;5.004;2023-03-11T16:10:35;2.13;;;0.93;;
48667;SDS011;34453;52.198;5.004;2023-03-11T16:13:01;4.38;;;1.15;;
48667;SDS011;34453;52.198;5.004;2023-03-11T16:15:30;4.65;;;1.50;;
48667;SDS011;34453;52.198;5.004;2023-03-11T16:17:58;9.38;;;0.90;;
48667;SDS011;34453;52.198;5.004;2023-03-11T16:20:27;0.50;;;0.50;;
48667;SDS011;34453;52.198;5.004;2023-03-11T16:22:58;1.90;;;0.63;;
48667;SDS011;34453;52.198;5.004;2023-03-11T16:25:43;2.22;;;0.73;;
48667;SDS011;34453;52.198;5.004;2023-03-11T16:28:13;1.60;;;0.88;;
48667;SDS011;34453;52.198;5.004;2023-03-11T16:30:40;1.58;;;0.40;;
48667;SDS011;34453;52.198;5.004;2023-03-11T16:33:05;4.13;;;0.63;;
48667;SDS011;34453;52.198;5.004;2023-03-11T16:35:31;5.57;;;0.70;;
48667;SDS011;34453;52.198;5.004;2023-03-11T16:37:57;3.08;;;0.60;;
48667;SDS011;34453;52.198;5.004;2023-03-11T16:40:24;1.60;;;0.80;;
48667;SDS011;34453;52.198;5.004;2023-03-11T16:42:56;3.25;;;0.73;;
48667;SDS011;34453;52.198;5.004;2023-03-11T16:45:24;3.88;;;0.70;;
48667;SDS011;34453;52.198;5.004;2023-03-11T16:47:50;6.10;;;1.02;;
48667;SDS011;34453;52.198;5.004;2023-03-11T16:50:15;1.63;;;0.93;;
48667;SDS011;34453;52.198;5.004;2023-03-11T16:52:41;2.70;;;0.57;;
48667;SDS011;34453;52.198;5.004;2023-03-11T16:55:06;10.48;;;1.25;;
48667;SDS011;34453;52.198;5.004;2023-03-11T16:57:32;4.13;;;0.75;;
48667;SDS011;34453;52.198;5.004;2023-03-11T16:59:58;6.60;;;1.13;;
48667;SDS011;34453;52.198;5.004;2023-03-11T17:02:23;5.03;;;0.80;;
48667;SDS011;34453;52.198;5.004;2023-03-11T17:04:49;4.20;;;0.80;;
48667;SDS011;34453;52.198;5.004;2023-03-11T17:07:14;4.28;;;0.55;;
48667;SDS011;34453;52.198;5.004;2023-03-11T17:09:40;2.58;;;0.60;;
48667;SDS011;34453;52.198;5.004;2023-03-11T17:12:06;1.15;;;0.60;;
48667;SDS011;34453;52.198;5.004;2023-03-11T17:14:31;2.58;;;0.70;;
48667;SDS011;34453;52.198;5.004;2023-03-11T17:16:57;1.98;;;0.65;;
48667;SDS011;34453;52.198;5.004;2023-03-11T17:19:23;1.13;;;0.47;;
48667;SDS011;34453;52.198;5.004;2023-03-11T17:21:48;5.28;;;1.15;;
48667;SDS011;34453;52.198;5.004;2023-03-11T17:24:15;2.92;;;0.95;;
48667;SDS011;34453;52.198;5.004;2023-03-11T17:26:40;2.40;;;0.57;;
48667;SDS011;34453;52.198;5.004;2023-03-11T17:29:06;1.88;;;0.60;;
48667;SDS011;34453;52.198;5.004;2023-03-11T17:31:31;1.52;;;0.80;;
48667;SDS011;34453;52.198;5.004;2023-03-11T17:33:57;0.77;;;0.75;;
48667;SDS011;34453;52.198;5.004;2023-03-11T17:36:25;1.13;;;0.70;;
48667;SDS011;34453;52.198;5.004;2023-03-11T17:38:52;1.10;;;0.77;;
48667;SDS011;34453;52.198;5.004;2023-03-11T17:41:18;1.75;;;0.70;;
48667;SDS011;34453;52.198;5.004;2023-03-11T17:43:44;3.50;;;0.70;;
48667;SDS011;34453;52.198;5.004;2023-03-11T17:46:12;2.78;;;0.85;;
48667;SDS011;34453;52.198;5.004;2023-03-11T17:48:39;1.65;;;0.60;;
48667;SDS011;34453;52.198;5.004;2023-03-11T17:51:06;2.00;;;0.95;;
48667;SDS011;34453;52.198;5.004;2023-03-11T17:53:34;2.58;;;0.63;;
48667;SDS011;34453;52.198;5.004;2023-03-11T17:56:01;4.20;;;0.65;;
48667;SDS011;34453;52.198;5.004;2023-03-11T17:58:27;0.95;;;0.68;;
48667;SDS011;34453;52.198;5.004;2023-03-11T18:00:52;1.90;;;0.70;;
48667;SDS011;34453;52.198;5.004;2023-03-11T18:03:17;5.07;;;1.10;;
48667;SDS011;34453;52.198;5.004;2023-03-11T18:05:52;2.28;;;0.77;;
48667;SDS011;34453;52.198;5.004;2023-03-11T18:08:27;4.70;;;0.80;;
48667;SDS011;34453;52.198;5.004;2023-03-11T18:10:56;1.25;;;0.77;;
48667;SDS011;34453;52.198;5.004;2023-03-11T18:13:24;0.90;;;0.90;;
48667;SDS011;34453;52.198;5.004;2023-03-11T18:15:59;2.38;;;1.30;;
48667;SDS011;34453;52.198;5.004;2023-03-11T18:18:27;1.10;;;1.00;;
48667;SDS011;34453;52.198;5.004;2023-03-11T18:20:53;7.95;;;1.30;;
48667;SDS011;34453;52.198;5.004;2023-03-11T18:23:19;3.50;;;0.90;;
48667;SDS011;34453;52.198;5.004;2023-03-11T18:25:48;1.73;;;1.08;;
48667;SDS011;34453;52.198;5.004;2023-03-11T18:28:17;2.55;;;1.30;;
48667;SDS011;34453;52.198;5.004;2023-03-11T18:30:43;2.85;;;1.08;;
48667;SDS011;34453;52.198;5.004;2023-03-11T18:33:08;2.38;;;1.27;;
48667;SDS011;34453;52.198;5.004;2023-03-11T18:35:34;3.75;;;1.95;;
48667;SDS011;34453;52.198;5.004;2023-03-11T18:37:59;3.85;;;1.10;;
48667;SDS011;34453;52.198;5.004;2023-03-11T18:40:25;3.47;;;1.80;;
48667;SDS011;34453;52.198;5.004;2023-03-11T18:42:51;6.93;;;2.42;;
48667;SDS011;34453;52.198;5.004;2023-03-11T18:45:17;3.45;;;1.33;;
48667;SDS011;34453;52.198;5.004;2023-03-11T18:47:43;4.35;;;1.60;;
48667;SDS011;34453;52.198;5.004;2023-03-11T18:50:09;1.17;;;1.10;;
48667;SDS011;34453;52.198;5.004;2023-03-11T18:52:35;1.38;;;1.20;;
48667;SDS011;34453;52.198;5.004;2023-03-11T18:55:00;1.63;;;1.10;;
48667;SDS011;34453;52.198;5.004;2023-03-11T18:57:26;2.65;;;2.00;;
48667;SDS011;34453;52.198;5.004;2023-03-11T18:59:51;3.60;;;1.25;;
48667;SDS011;34453;52.198;5.004;2023-03-11T19:02:17;5.35;;;1.65;;
48667;SDS011;34453;52.198;5.004;2023-03-11T19:04:42;2.55;;;1.13;;
48667;SDS011;34453;52.198;5.004;2023-03-11T19:07:08;1.75;;;1.40;;
48667;SDS011;34453;52.198;5.004;2023-03-11T19:09:33;3.67;;;1.33;;
48667;SDS011;34453;52.198;5.004;2023-03-11T19:11:59;2.30;;;1.13;;
48667;SDS011;34453;52.198;5.004;2023-03-11T19:14:25;2.97;;;1.52;;
48667;SDS011;34453;52.198;5.004;2023-03-11T19:16:51;1.63;;;1.52;;
48667;SDS011;34453;52.198;5.004;2023-03-11T19:19:16;3.28;;;1.05;;
48667;SDS011;34453;52.198;5.004;2023-03-11T19:21:42;1.00;;;0.98;;
48667;SDS011;34453;52.198;5.004;2023-03-11T19:24:07;1.50;;;1.40;;
48667;SDS011;34453;52.198;5.004;2023-03-11T19:26:33;6.22;;;2.03;;
48667;SDS011;34453;52.198;5.004;2023-03-11T19:29:00;1.83;;;1.73;;
48667;SDS011;34453;52.198;5.004;2023-03-11T19:31:29;2.13;;;2.00;;
48667;SDS011;34453;52.198;5.004;2023-03-11T19:33:54;6.80;;;1.80;;
48667;SDS011;34453;52.198;5.004;2023-03-11T19:36:19;4.20;;;2.55;;
48667;SDS011;34453;52.198;5.004;2023-03-11T19:38:45;4.80;;;3.97;;
48667;SDS011;34453;52.198;5.004;2023-03-11T19:41:12;5.28;;;4.28;;
48667;SDS011;34453;52.198;5.004;2023-03-11T19:43:40;6.13;;;3.25;;
48667;SDS011;34453;52.198;5.004;2023-03-11T19:46:06;7.05;;;3.40;;
48667;SDS011;34453;52.198;5.004;2023-03-11T19:48:33;3.30;;;1.92;;
48667;SDS011;34453;52.198;5.004;2023-03-11T19:50:59;2.38;;;1.00;;
48667;SDS011;34453;52.198;5.004;2023-03-11T19:53:26;2.33;;;1.58;;
48667;SDS011;34453;52.198;5.004;2023-03-11T19:55:53;1.73;;;1.63;;
48667;SDS011;34453;52.198;5.004;2023-03-11T19:58:21;2.58;;;1.67;;
48667;SDS011;34453;52.198;5.004;2023-03-11T20:00:48;4.85;;;2.00;;
48667;SDS011;34453;52.198;5.004;2023-03-11T20:03:14;3.72;;;1.95;;
48667;SDS011;34453;52.198;5.004;2023-03-11T20:05:40;3.65;;;2.35;;
48667;SDS011;34453;52.198;5.004;2023-03-11T20:08:09;3.53;;;2.33;;
48667;SDS011;34453;52.198;5.004;2023-03-11T20:10:36;2.72;;;2.35;;
48667;SDS011;34453;52.198;5.004;2023-03-11T20:13:04;2.17;;;2.05;;
48667;SDS011;34453;52.198;5.004;2023-03-11T20:15:30;7.10;;;3.28;;
48667;SDS011;34453;52.198;5.004;2023-03-11T20:17:55;2.15;;;2.05;;
48667;SDS011;34453;52.198;5.004;2023-03-11T20:20:21;4.03;;;2.35;;
48667;SDS011;34453;52.198;5.004;2023-03-11T20:22:47;3.05;;;2.85;;
48667;SDS011;34453;52.198;5.004;2023-03-11T20:25:13;9.23;;;2.67;;
48667;SDS011;34453;52.198;5.004;2023-03-11T20:27:40;4.15;;;3.28;;
48667;SDS011;34453;52.198;5.004;2023-03-11T20:30:06;2.85;;;2.65;;
48667;SDS011;34453;52.198;5.004;2023-03-11T20:32:32;2.72;;;2.53;;
48667;SDS011;34453;52.198;5.004;2023-03-11T20:34:58;9.10;;;3.58;;
48667;SDS011;34453;52.198;5.004;2023-03-11T20:37:24;4.15;;;2.40;;
48667;SDS011;34453;52.198;5.004;2023-03-11T20:39:49;5.97;;;2.72;;
48667;SDS011;34453;52.198;5.004;2023-03-11T20:42:14;7.57;;;4.28;;
48667;SDS011;34453;52.198;5.004;2023-03-11T20:44:40;7.30;;;4.45;;
48667;SDS011;34453;52.198;5.004;2023-03-11T20:47:05;10.68;;;4.45;;
48667;SDS011;34453;52.198;5.004;2023-03-11T20:49:31;5.03;;;4.25;;
48667;SDS011;34453;52.198;5.004;2023-03-11T20:51:56;5.43;;;4.55;;
48667;SDS011;34453;52.198;5.004;2023-03-11T20:54:22;5.53;;;3.80;;
48667;SDS011;34453;52.198;5.004;2023-03-11T20:56:47;5.88;;;4.70;;
48667;SDS011;34453;52.198;5.004;2023-03-11T20:59:14;6.38;;;5.18;;
48667;SDS011;34453;52.198;5.004;2023-03-11T21:01:40;9.35;;;6.20;;
48667;SDS011;34453;52.198;5.004;2023-03-11T21:04:06;10.05;;;6.20;;
48667;SDS011;34453;52.198;5.004;2023-03-11T21:06:33;14.30;;;6.75;;
48667;SDS011;34453;52.198;5.004;2023-03-11T21:09:02;8.35;;;7.47;;
48667;SDS011;34453;52.198;5.004;2023-03-11T21:11:30;18.77;;;10.20;;
48667;SDS011;34453;52.198;5.004;2023-03-11T21:13:56;26.02;;;12.88;;
48667;SDS011;34453;52.198;5.004;2023-03-11T21:16:21;22.80;;;13.05;;
48667;SDS011;34453;52.198;5.004;2023-03-11T21:18:47;17.60;;;11.40;;
48667;SDS011;34453;52.198;5.004;2023-03-11T21:21:13;11.60;;;8.85;;